Time;durP1;ratioP1;P1;durP2;ratioP2;P2;SDS_P1;SDS_P2;PMS_P1;PMS_P2;Temp;Humidity;BMP_temperature;BMP_pressure;BME280_temperature;BME280_humidity;BME280_pressure;Samples;Min_cycle;Max_cycle;Signal;HPM_P1;HPM_P2
2023/09/09 21:11:38;;;;;;;47.70;34.10;;;;;;;16.50;83.09;100607.61;126373;1295;636936;-64
2023/09/09 21:14:40;;;;;;;71.30;52.30;;;;;;;16.52;82.22;100608.17;128894;1285;115093;-65
2023/09/09 21:17:42;;;;;;;65.70;51.20;;;;;;;16.51;82.15;100606.65;129399;1274;115098;-65
2023/09/09 21:20:44;;;;;;;45.40;34.70;;;;;;;16.48;81.95;100607.36;128920;1270;116412;-66
2023/09/09 21:23:46;;;;;;;43.60;33.10;;;;;;;16.46;82.05;100605.20;126693;1270;3374370;-66
2023/09/09 21:26:49;;;;;;;41.50;30.40;;;;;;;16.44;82.15;100603.70;129540;1287;114736;-68
2023/09/09 21:29:51;;;;;;;37.10;28.30;;;;;;;16.42;82.11;100600.91;129575;1271;115337;-67
2023/09/09 21:32:54;;;;;;;35.40;27.50;;;;;;;16.42;82.22;100597.87;129503;1287;115284;-68
2023/09/09 21:35:59;;;;;;;32.20;25.50;;;;;;;16.40;82.28;100595.45;129656;1270;128185;-66
2023/09/09 21:39:02;;;;;;;30.80;25.30;;;;;;;16.40;82.23;100595.14;129486;1270;114753;-67
2023/09/09 21:42:04;;;;;;;31.10;24.70;;;;;;;16.38;82.43;100594.16;130084;1264;114823;-67
2023/09/09 21:45:07;;;;;;;28.20;23.40;;;;;;;16.38;82.48;100592.70;130220;1263;114734;-68
2023/09/09 21:48:10;;;;;;;32.70;24.20;;;;;;;16.37;82.64;100594.98;130119;1281;114920;-67
2023/09/09 21:51:12;;;;;;;28.90;24.00;;;;;;;16.36;82.72;100593.04;130386;1254;115242;-67
2023/09/09 21:54:13;;;;;;;33.70;27.00;;;;;;;16.36;82.78;100591.63;130362;1254;114820;-67
2023/09/09 21:57:15;;;;;;;35.60;26.80;;;;;;;16.35;82.80;100592.39;130548;1255;114795;-67
2023/09/09 22:00:22;;;;;;;46.40;35.90;;;;;;;16.34;83.04;100590.11;130330;1257;115297;-69
2023/09/09 22:03:24;;;;;;;34.40;27.60;;;;;;;16.34;83.24;100589.61;130524;1265;115426;-68
2023/09/09 22:06:26;;;;;;;34.20;27.70;;;;;;;16.33;83.24;100590.20;130436;1254;115148;-68
2023/09/09 22:09:29;;;;;;;51.20;35.70;;;;;;;16.31;83.33;100589.77;130569;1257;115199;-72
2023/09/09 22:12:32;;;;;;;35.70;26.70;;;;;;;16.29;83.20;100592.45;130493;1253;114846;-74
2023/09/09 22:15:35;;;;;;;36.10;27.50;;;;;;;16.27;83.39;100587.52;130743;1254;114737;-74
2023/09/09 22:18:37;;;;;;;35.50;25.30;;;;;;;16.24;83.42;100591.48;130662;1275;114753;-73
2023/09/09 22:21:39;;;;;;;34.10;25.00;;;;;;;16.22;83.40;100591.98;130683;1254;115462;-72
2023/09/09 22:24:41;;;;;;;35.20;25.90;;;;;;;16.21;83.55;100594.65;130548;1257;115196;-69
2023/09/09 22:27:43;;;;;;;32.40;26.20;;;;;;;16.17;83.49;100593.42;130711;1275;114794;-72
2023/09/09 22:30:45;;;;;;;31.70;24.10;;;;;;;16.15;83.39;100588.22;130543;1258;114773;-73
2023/09/09 22:33:48;;;;;;;38.30;26.90;;;;;;;16.12;83.66;100586.09;130695;1257;114789;-75
2023/09/09 22:36:50;;;;;;;43.60;32.90;;;;;;;16.09;83.77;100586.59;130516;1257;128806;-74
2023/09/09 22:39:52;;;;;;;61.70;41.60;;;;;;;16.06;83.88;100589.11;130492;1254;114740;-71
2023/09/09 22:42:54;;;;;;;52.20;41.70;;;;;;;16.05;83.83;100585.11;130534;1257;114791;-72
2023/09/09 22:45:56;;;;;;;42.00;32.90;;;;;;;16.01;84.03;100587.33;130540;1254;114714;-73
2023/09/09 22:48:58;;;;;;;37.20;27.10;;;;;;;15.99;84.22;100591.45;130962;1254;115163;-74
2023/09/09 22:52:01;;;;;;;35.60;27.50;;;;;;;15.95;84.14;100592.02;130471;1257;115224;-70
2023/09/09 22:55:06;;;;;;;31.20;25.10;;;;;;;15.92;84.34;100594.74;130450;1254;114690;-71
2023/09/09 22:58:08;;;;;;;36.40;26.60;;;;;;;15.90;84.42;100591.29;130080;1260;127763;-73
2023/09/09 23:01:12;;;;;;;34.30;28.70;;;;;;;15.88;84.53;100592.70;130365;1254;114986;-72
2023/09/09 23:04:14;;;;;;;34.00;25.10;;;;;;;15.85;84.49;100589.30;130723;1256;114827;-72
2023/09/09 23:07:16;;;;;;;31.40;23.30;;;;;;;15.81;84.53;100584.64;130594;1257;115103;-76
2023/09/09 23:10:18;;;;;;;30.70;23.00;;;;;;;15.78;84.72;100581.61;130469;1275;114833;-75
2023/09/09 23:13:19;;;;;;;31.80;24.50;;;;;;;15.75;84.74;100578.41;130485;1275;115398;-73
2023/09/09 23:16:22;;;;;;;31.10;22.00;;;;;;;15.73;85.03;100573.66;130579;1257;114805;-76
2023/09/09 23:19:24;;;;;;;30.60;23.50;;;;;;;15.72;85.17;100569.96;130101;1275;127893;-73
2023/09/09 23:22:27;;;;;;;30.50;23.30;;;;;;;15.70;85.18;100571.56;130467;1275;114740;-72
2023/09/09 23:25:29;;;;;;;30.40;23.60;;;;;;;15.68;85.33;100567.38;130535;1275;114781;-71
2023/09/09 23:28:31;;;;;;;28.20;22.90;;;;;;;15.65;85.27;100567.73;130555;1257;114819;-70
2023/09/09 23:31:33;;;;;;;25.70;21.50;;;;;;;15.61;85.46;100567.22;130534;1275;114771;-72
2023/09/09 23:34:37;;;;;;;24.90;20.40;;;;;;;15.59;85.27;100566.33;130375;1275;114721;-77
2023/09/09 23:37:39;;;;;;;26.50;21.50;;;;;;;15.55;85.37;100562.80;130441;1257;114866;-72
2023/09/09 23:40:41;;;;;;;26.40;21.30;;;;;;;15.52;85.43;100566.22;130440;1269;114766;-74
2023/09/09 23:43:43;;;;;;;26.80;22.00;;;;;;;15.48;85.58;100557.27;130624;1254;115212;-75
2023/09/09 23:46:45;;;;;;;29.60;21.50;;;;;;;15.46;85.85;100560.50;130511;1258;115096;-75
2023/09/09 23:49:47;;;;;;;37.30;26.20;;;;;;;15.44;86.12;100562.10;130533;1272;114799;-76
2023/09/09 23:52:50;;;;;;;32.20;26.80;;;;;;;15.44;87.11;100568.55;130488;1256;114652;-77
2023/09/09 23:55:52;;;;;;;32.50;25.50;;;;;;;15.45;87.38;100567.73;130563;1254;114747;-75
2023/09/09 23:58:54;;;;;;;37.70;27.70;;;;;;;15.46;87.65;100566.95;130385;1260;115102;-76
